sensor_id;sensor_type;location;lat;lon;timestamp;temperature;humidity
78571;SHT31;67861;51.966;5.672;2023-06-04T00:01:46;17.7;43.2
78571;SHT31;67861;51.966;5.672;2023-06-04T00:04:15;17.7;43.3
78571;SHT31;67861;51.966;5.672;2023-06-04T00:06:45;17.6;43.3
78571;SHT31;67861;51.966;5.672;2023-06-04T00:09:15;17.6;43.3
78571;SHT31;67861;51.966;5.672;2023-06-04T00:11:45;17.5;43.3
78571;SHT31;67861;51.966;5.672;2023-06-04T00:14:15;17.5;43.5
78571;SHT31;67861;51.966;5.672;2023-06-04T00:16:47;17.5;43.5
78571;SHT31;67861;51.966;5.672;2023-06-04T00:19:17;17.4;43.5
78571;SHT31;67861;51.966;5.672;2023-06-04T00:21:46;17.4;43.7
78571;SHT31;67861;51.966;5.672;2023-06-04T00:24:19;17.3;43.5
78571;SHT31;67861;51.966;5.672;2023-06-04T00:26:49;17.3;43.7
78571;SHT31;67861;51.966;5.672;2023-06-04T00:29:18;17.2;43.6
78571;SHT31;67861;51.966;5.672;2023-06-04T00:31:48;17.2;43.5
78571;SHT31;67861;51.966;5.672;2023-06-04T00:34:20;17.1;43.8
78571;SHT31;67861;51.966;5.672;2023-06-04T00:36:50;17.1;44.0
78571;SHT31;67861;51.966;5.672;2023-06-04T00:39:20;17.1;43.7
78571;SHT31;67861;51.966;5.672;2023-06-04T00:41:51;17.0;44.0
78571;SHT31;67861;51.966;5.672;2023-06-04T00:44:21;17.0;43.7
78571;SHT31;67861;51.966;5.672;2023-06-04T00:46:52;17.0;43.9
78571;SHT31;67861;51.966;5.672;2023-06-04T00:49:24;16.9;44.1
78571;SHT31;67861;51.966;5.672;2023-06-04T00:51:54;16.9;43.9
78571;SHT31;67861;51.966;5.672;2023-06-04T00:54:25;16.9;44.1
78571;SHT31;67861;51.966;5.672;2023-06-04T00:56:56;16.9;43.7
78571;SHT31;67861;51.966;5.672;2023-06-04T00:59:27;16.9;43.9
78571;SHT31;67861;51.966;5.672;2023-06-04T01:02:03;16.8;43.8
78571;SHT31;67861;51.966;5.672;2023-06-04T01:04:41;16.8;43.9
78571;SHT31;67861;51.966;5.672;2023-06-04T01:07:14;16.8;43.8
78571;SHT31;67861;51.966;5.672;2023-06-04T01:09:45;16.7;44.0
78571;SHT31;67861;51.966;5.672;2023-06-04T01:12:15;16.7;44.1
78571;SHT31;67861;51.966;5.672;2023-06-04T01:14:44;16.6;44.2
78571;SHT31;67861;51.966;5.672;2023-06-04T01:17:19;16.6;44.0
78571;SHT31;67861;51.966;5.672;2023-06-04T01:19:59;16.5;44.3
78571;SHT31;67861;51.966;5.672;2023-06-04T01:22:38;16.5;44.5
78571;SHT31;67861;51.966;5.672;2023-06-04T01:25:14;16.5;44.4
78571;SHT31;67861;51.966;5.672;2023-06-04T01:27:50;16.5;44.5
78571;SHT31;67861;51.966;5.672;2023-06-04T01:30:26;16.4;44.5
78571;SHT31;67861;51.966;5.672;2023-06-04T01:32:56;16.4;44.7
78571;SHT31;67861;51.966;5.672;2023-06-04T01:35:27;16.4;44.4
78571;SHT31;67861;51.966;5.672;2023-06-04T01:37:58;16.4;44.7
78571;SHT31;67861;51.966;5.672;2023-06-04T01:40:29;16.3;44.5
78571;SHT31;67861;51.966;5.672;2023-06-04T01:42:59;16.3;44.3
78571;SHT31;67861;51.966;5.672;2023-06-04T01:45:31;16.3;44.6
78571;SHT31;67861;51.966;5.672;2023-06-04T01:48:02;16.2;44.8
78571;SHT31;67861;51.966;5.672;2023-06-04T01:50:33;16.2;44.7
78571;SHT31;67861;51.966;5.672;2023-06-04T01:53:03;16.1;44.8
78571;SHT31;67861;51.966;5.672;2023-06-04T01:55:34;16.1;45.0
78571;SHT31;67861;51.966;5.672;2023-06-04T01:58:05;16.0;45.2
78571;SHT31;67861;51.966;5.672;2023-06-04T02:00:34;16.0;45.2
78571;SHT31;67861;51.966;5.672;2023-06-04T02:03:04;15.9;45.2
78571;SHT31;67861;51.966;5.672;2023-06-04T02:05:36;15.9;45.5
78571;SHT31;67861;51.966;5.672;2023-06-04T02:08:06;15.9;45.4
78571;SHT31;67861;51.966;5.672;2023-06-04T02:10:36;15.8;45.6
78571;SHT31;67861;51.966;5.672;2023-06-04T02:13:06;15.8;45.6
78571;SHT31;67861;51.966;5.672;2023-06-04T02:15:35;15.7;45.7
78571;SHT31;67861;51.966;5.672;2023-06-04T02:18:14;15.7;45.8
78571;SHT31;67861;51.966;5.672;2023-06-04T02:20:49;15.6;45.9
78571;SHT31;67861;51.966;5.672;2023-06-04T02:23:20;15.6;46.1
78571;SHT31;67861;51.966;5.672;2023-06-04T02:25:50;15.6;46.3
78571;SHT31;67861;51.966;5.672;2023-06-04T02:28:22;15.6;46.2
78571;SHT31;67861;51.966;5.672;2023-06-04T02:30:52;15.6;46.3
78571;SHT31;67861;51.966;5.672;2023-06-04T02:33:22;15.6;46.7
78571;SHT31;67861;51.966;5.672;2023-06-04T02:35:56;15.6;46.3
78571;SHT31;67861;51.966;5.672;2023-06-04T02:38:26;15.6;45.6
78571;SHT31;67861;51.966;5.672;2023-06-04T02:40:55;15.6;45.7
78571;SHT31;67861;51.966;5.672;2023-06-04T02:43:25;15.5;45.9
78571;SHT31;67861;51.966;5.672;2023-06-04T02:45:54;15.5;46.0
78571;SHT31;67861;51.966;5.672;2023-06-04T02:48:24;15.5;46.1
78571;SHT31;67861;51.966;5.672;2023-06-04T02:50:53;15.5;46.1
78571;SHT31;67861;51.966;5.672;2023-06-04T02:53:24;15.5;45.9
78571;SHT31;67861;51.966;5.672;2023-06-04T02:55:55;15.5;45.9
78571;SHT31;67861;51.966;5.672;2023-06-04T02:58:25;15.5;46.2
78571;SHT31;67861;51.966;5.672;2023-06-04T03:00:56;15.5;46.4
78571;SHT31;67861;51.966;5.672;2023-06-04T03:03:25;15.5;46.2
78571;SHT31;67861;51.966;5.672;2023-06-04T03:05:58;15.5;46.6
78571;SHT31;67861;51.966;5.672;2023-06-04T03:08:28;15.5;46.8
78571;SHT31;67861;51.966;5.672;2023-06-04T03:10:58;15.5;46.1
78571;SHT31;67861;51.966;5.672;2023-06-04T03:13:27;15.5;47.1
78571;SHT31;67861;51.966;5.672;2023-06-04T03:15:57;15.5;47.1
78571;SHT31;67861;51.966;5.672;2023-06-04T03:18:29;15.5;47.0
78571;SHT31;67861;51.966;5.672;2023-06-04T03:21:02;15.5;46.4
78571;SHT31;67861;51.966;5.672;2023-06-04T03:23:32;15.5;46.2
78571;SHT31;67861;51.966;5.672;2023-06-04T03:26:02;15.5;46.3
78571;SHT31;67861;51.966;5.672;2023-06-04T03:28:33;15.5;47.7
78571;SHT31;67861;51.966;5.672;2023-06-04T03:31:03;15.5;46.5
78571;SHT31;67861;51.966;5.672;2023-06-04T03:33:32;15.5;47.3
78571;SHT31;67861;51.966;5.672;2023-06-04T03:36:02;15.5;47.2
78571;SHT31;67861;51.966;5.672;2023-06-04T03:38:32;15.5;47.1
78571;SHT31;67861;51.966;5.672;2023-06-04T03:41:02;15.4;48.3
78571;SHT31;67861;51.966;5.672;2023-06-04T03:43:33;15.4;47.6
78571;SHT31;67861;51.966;5.672;2023-06-04T03:46:02;15.4;47.2
78571;SHT31;67861;51.966;5.672;2023-06-04T03:48:31;15.4;47.3
78571;SHT31;67861;51.966;5.672;2023-06-04T03:51:01;15.4;48.2
78571;SHT31;67861;51.966;5.672;2023-06-04T03:53:30;15.4;47.6
78571;SHT31;67861;51.966;5.672;2023-06-04T03:56:00;15.3;47.4
78571;SHT31;67861;51.966;5.672;2023-06-04T03:58:30;15.3;47.5
78571;SHT31;67861;51.966;5.672;2023-06-04T04:01:02;15.4;47.9
78571;SHT31;67861;51.966;5.672;2023-06-04T04:03:33;15.4;48.0
78571;SHT31;67861;51.966;5.672;2023-06-04T04:06:03;15.4;47.8
78571;SHT31;67861;51.966;5.672;2023-06-04T04:08:32;15.4;49.2
78571;SHT31;67861;51.966;5.672;2023-06-04T04:11:02;15.4;48.6
78571;SHT31;67861;51.966;5.672;2023-06-04T04:13:31;15.4;49.0
78571;SHT31;67861;51.966;5.672;2023-06-04T04:16:01;15.3;48.1
78571;SHT31;67861;51.966;5.672;2023-06-04T04:18:34;15.3;47.9
78571;SHT31;67861;51.966;5.672;2023-06-04T04:21:04;15.3;47.6
78571;SHT31;67861;51.966;5.672;2023-06-04T04:23:34;15.3;47.7
78571;SHT31;67861;51.966;5.672;2023-06-04T04:26:04;15.3;47.9
78571;SHT31;67861;51.966;5.672;2023-06-04T04:28:33;15.3;47.9
78571;SHT31;67861;51.966;5.672;2023-06-04T04:31:03;15.3;48.1
78571;SHT31;67861;51.966;5.672;2023-06-04T04:33:35;15.2;47.9
78571;SHT31;67861;51.966;5.672;2023-06-04T04:36:08;15.2;48.3
78571;SHT31;67861;51.966;5.672;2023-06-04T04:38:40;15.2;48.7
78571;SHT31;67861;51.966;5.672;2023-06-04T04:41:09;15.2;48.9
78571;SHT31;67861;51.966;5.672;2023-06-04T04:43:39;15.2;49.0
78571;SHT31;67861;51.966;5.672;2023-06-04T04:46:10;15.2;49.6
78571;SHT31;67861;51.966;5.672;2023-06-04T04:48:42;15.2;49.6
78571;SHT31;67861;51.966;5.672;2023-06-04T04:51:11;15.2;49.2
78571;SHT31;67861;51.966;5.672;2023-06-04T04:53:41;15.2;49.2
78571;SHT31;67861;51.966;5.672;2023-06-04T04:56:10;15.2;49.3
78571;SHT31;67861;51.966;5.672;2023-06-04T04:58:42;15.2;49.4
78571;SHT31;67861;51.966;5.672;2023-06-04T05:01:12;15.2;49.5
78571;SHT31;67861;51.966;5.672;2023-06-04T05:03:41;15.2;49.8
78571;SHT31;67861;51.966;5.672;2023-06-04T05:06:11;15.2;49.8
78571;SHT31;67861;51.966;5.672;2023-06-04T05:08:40;15.2;49.8
78571;SHT31;67861;51.966;5.672;2023-06-04T05:11:10;15.2;50.1
78571;SHT31;67861;51.966;5.672;2023-06-04T05:13:39;15.2;50.6
78571;SHT31;67861;51.966;5.672;2023-06-04T05:16:10;15.2;50.3
78571;SHT31;67861;51.966;5.672;2023-06-04T05:18:40;15.2;50.8
78571;SHT31;67861;51.966;5.672;2023-06-04T05:21:11;15.2;50.7
78571;SHT31;67861;51.966;5.672;2023-06-04T05:23:41;15.2;51.1
78571;SHT31;67861;51.966;5.672;2023-06-04T05:26:14;15.2;50.5
78571;SHT31;67861;51.966;5.672;2023-06-04T05:28:45;15.2;50.9
78571;SHT31;67861;51.966;5.672;2023-06-04T05:31:14;15.3;50.7
78571;SHT31;67861;51.966;5.672;2023-06-04T05:33:45;15.3;50.6
78571;SHT31;67861;51.966;5.672;2023-06-04T05:36:15;15.4;51.0
78571;SHT31;67861;51.966;5.672;2023-06-04T05:38:44;15.4;50.9
78571;SHT31;67861;51.966;5.672;2023-06-04T05:41:14;15.5;51.5
78571;SHT31;67861;51.966;5.672;2023-06-04T05:43:44;15.5;50.9
78571;SHT31;67861;51.966;5.672;2023-06-04T05:46:14;15.5;50.8
78571;SHT31;67861;51.966;5.672;2023-06-04T05:48:43;15.6;50.8
78571;SHT31;67861;51.966;5.672;2023-06-04T05:51:14;15.6;51.5
78571;SHT31;67861;51.966;5.672;2023-06-04T05:53:43;15.6;50.9
78571;SHT31;67861;51.966;5.672;2023-06-04T05:56:13;15.7;50.9
78571;SHT31;67861;51.966;5.672;2023-06-04T05:58:44;15.7;50.7
78571;SHT31;67861;51.966;5.672;2023-06-04T06:01:15;15.8;51.2
78571;SHT31;67861;51.966;5.672;2023-06-04T06:03:44;15.8;50.5
78571;SHT31;67861;51.966;5.672;2023-06-04T06:06:15;15.9;50.6
78571;SHT31;67861;51.966;5.672;2023-06-04T06:08:45;15.9;51.0
78571;SHT31;67861;51.966;5.672;2023-06-04T06:11:15;16.0;50.2
78571;SHT31;67861;51.966;5.672;2023-06-04T06:13:45;16.0;49.9
78571;SHT31;67861;51.966;5.672;2023-06-04T06:16:15;16.1;50.4
78571;SHT31;67861;51.966;5.672;2023-06-04T06:18:46;16.1;50.5
78571;SHT31;67861;51.966;5.672;2023-06-04T06:21:16;16.2;51.2
78571;SHT31;67861;51.966;5.672;2023-06-04T06:23:46;16.3;49.6
78571;SHT31;67861;51.966;5.672;2023-06-04T06:26:15;16.3;50.5
78571;SHT31;67861;51.966;5.672;2023-06-04T06:28:45;16.4;49.9
78571;SHT31;67861;51.966;5.672;2023-06-04T06:31:15;16.5;48.8
78571;SHT31;67861;51.966;5.672;2023-06-04T06:33:44;16.5;48.8
78571;SHT31;67861;51.966;5.672;2023-06-04T06:36:16;16.6;48.9
78571;SHT31;67861;51.966;5.672;2023-06-04T06:38:46;16.6;48.2
78571;SHT31;67861;51.966;5.672;2023-06-04T06:41:18;16.7;48.5
78571;SHT31;67861;51.966;5.672;2023-06-04T06:43:48;16.8;47.6
78571;SHT31;67861;51.966;5.672;2023-06-04T06:46:22;16.9;48.4
78571;SHT31;67861;51.966;5.672;2023-06-04T06:49:00;17.0;48.9
78571;SHT31;67861;51.966;5.672;2023-06-04T06:51:29;17.1;49.1
78571;SHT31;67861;51.966;5.672;2023-06-04T06:53:59;17.2;47.9
78571;SHT31;67861;51.966;5.672;2023-06-04T06:56:28;17.3;47.6
78571;SHT31;67861;51.966;5.672;2023-06-04T06:58:58;17.4;47.6
78571;SHT31;67861;51.966;5.672;2023-06-04T07:01:28;17.6;47.8
78571;SHT31;67861;51.966;5.672;2023-06-04T07:03:59;17.7;46.5
78571;SHT31;67861;51.966;5.672;2023-06-04T07:06:29;17.9;47.5
78571;SHT31;67861;51.966;5.672;2023-06-04T07:08:59;18.0;45.4
78571;SHT31;67861;51.966;5.672;2023-06-04T07:11:29;18.1;44.9
78571;SHT31;67861;51.966;5.672;2023-06-04T07:13:58;18.2;44.4
78571;SHT31;67861;51.966;5.672;2023-06-04T07:16:29;18.2;43.8
78571;SHT31;67861;51.966;5.672;2023-06-04T07:19:02;18.3;43.9
78571;SHT31;67861;51.966;5.672;2023-06-04T07:21:32;18.4;43.0
78571;SHT31;67861;51.966;5.672;2023-06-04T07:24:01;18.4;43.5
78571;SHT31;67861;51.966;5.672;2023-06-04T07:26:32;18.5;43.6
78571;SHT31;67861;51.966;5.672;2023-06-04T07:29:02;18.6;43.7
78571;SHT31;67861;51.966;5.672;2023-06-04T07:31:32;18.7;43.9
78571;SHT31;67861;51.966;5.672;2023-06-04T07:34:02;18.8;43.1
78571;SHT31;67861;51.966;5.672;2023-06-04T07:36:32;18.9;44.1
78571;SHT31;67861;51.966;5.672;2023-06-04T07:39:02;18.9;42.8
78571;SHT31;67861;51.966;5.672;2023-06-04T07:41:31;19.0;43.4
78571;SHT31;67861;51.966;5.672;2023-06-04T07:44:01;19.1;41.2
78571;SHT31;67861;51.966;5.672;2023-06-04T07:46:30;19.2;41.4
78571;SHT31;67861;51.966;5.672;2023-06-04T07:49:00;19.3;41.9
78571;SHT31;67861;51.966;5.672;2023-06-04T07:51:30;19.5;40.6
78571;SHT31;67861;51.966;5.672;2023-06-04T07:54:00;19.6;40.2
78571;SHT31;67861;51.966;5.672;2023-06-04T07:56:30;19.7;39.7
78571;SHT31;67861;51.966;5.672;2023-06-04T07:58:59;19.8;39.3
78571;SHT31;67861;51.966;5.672;2023-06-04T08:01:29;19.9;39.9
78571;SHT31;67861;51.966;5.672;2023-06-04T08:03:58;20.0;39.4
78571;SHT31;67861;51.966;5.672;2023-06-04T08:06:28;20.1;38.2
78571;SHT31;67861;51.966;5.672;2023-06-04T08:08:57;20.2;38.6
78571;SHT31;67861;51.966;5.672;2023-06-04T08:11:27;20.2;38.8
78571;SHT31;67861;51.966;5.672;2023-06-04T08:13:58;20.3;38.7
78571;SHT31;67861;51.966;5.672;2023-06-04T08:16:29;20.4;37.4
78571;SHT31;67861;51.966;5.672;2023-06-04T08:18:59;20.5;38.0
78571;SHT31;67861;51.966;5.672;2023-06-04T08:21:29;20.6;36.2
78571;SHT31;67861;51.966;5.672;2023-06-04T08:23:58;20.8;37.5
78571;SHT31;67861;51.966;5.672;2023-06-04T08:26:31;20.9;37.6
78571;SHT31;67861;51.966;5.672;2023-06-04T08:29:04;21.0;34.8
78571;SHT31;67861;51.966;5.672;2023-06-04T08:31:34;21.1;35.0
78571;SHT31;67861;51.966;5.672;2023-06-04T08:34:07;21.2;36.6
78571;SHT31;67861;51.966;5.672;2023-06-04T08:36:37;21.3;36.5
78571;SHT31;67861;51.966;5.672;2023-06-04T08:39:08;21.4;35.5
78571;SHT31;67861;51.966;5.672;2023-06-04T08:41:43;21.5;34.0
78571;SHT31;67861;51.966;5.672;2023-06-04T08:44:16;21.6;34.0
78571;SHT31;67861;51.966;5.672;2023-06-04T08:46:51;21.7;34.1
78571;SHT31;67861;51.966;5.672;2023-06-04T08:49:22;21.8;31.3
78571;SHT31;67861;51.966;5.672;2023-06-04T08:51:56;21.9;33.1
78571;SHT31;67861;51.966;5.672;2023-06-04T08:54:28;22.0;31.2
78571;SHT31;67861;51.966;5.672;2023-06-04T08:56:58;22.1;31.3
78571;SHT31;67861;51.966;5.672;2023-06-04T08:59:29;22.2;33.1
78571;SHT31;67861;51.966;5.672;2023-06-04T09:01:59;22.3;31.3
78571;SHT31;67861;51.966;5.672;2023-06-04T09:04:30;22.4;31.7
78571;SHT31;67861;51.966;5.672;2023-06-04T09:07:02;22.5;32.6
78571;SHT31;67861;51.966;5.672;2023-06-04T09:09:38;22.7;32.3
78571;SHT31;67861;51.966;5.672;2023-06-04T09:12:10;22.8;28.9
78571;SHT31;67861;51.966;5.672;2023-06-04T09:14:39;22.9;28.1
78571;SHT31;67861;51.966;5.672;2023-06-04T09:17:09;23.0;30.5
78571;SHT31;67861;51.966;5.672;2023-06-04T09:19:40;23.2;30.1
78571;SHT31;67861;51.966;5.672;2023-06-04T09:22:10;23.3;31.1
78571;SHT31;67861;51.966;5.672;2023-06-04T09:24:41;23.4;30.2
78571;SHT31;67861;51.966;5.672;2023-06-04T09:27:15;23.6;29.5
78571;SHT31;67861;51.966;5.672;2023-06-04T09:29:51;23.7;30.3
78571;SHT31;67861;51.966;5.672;2023-06-04T09:32:24;23.8;30.2
78571;SHT31;67861;51.966;5.672;2023-06-04T09:35:10;24.0;31.5
78571;SHT31;67861;51.966;5.672;2023-06-04T09:37:42;24.2;28.7
78571;SHT31;67861;51.966;5.672;2023-06-04T09:40:15;24.2;27.2
78571;SHT31;67861;51.966;5.672;2023-06-04T09:42:46;24.3;28.5
78571;SHT31;67861;51.966;5.672;2023-06-04T09:45:37;24.4;29.7
78571;SHT31;67861;51.966;5.672;2023-06-04T09:48:06;24.5;27.2
78571;SHT31;67861;51.966;5.672;2023-06-04T09:50:36;24.6;27.6
78571;SHT31;67861;51.966;5.672;2023-06-04T09:53:15;24.7;27.8
78571;SHT31;67861;51.966;5.672;2023-06-04T09:55:57;24.8;29.4
78571;SHT31;67861;51.966;5.672;2023-06-04T09:58:29;24.9;26.8
78571;SHT31;67861;51.966;5.672;2023-06-04T10:01:00;24.9;26.4
78571;SHT31;67861;51.966;5.672;2023-06-04T10:03:47;24.9;26.3
78571;SHT31;67861;51.966;5.672;2023-06-04T10:06:19;25.0;27.3
78571;SHT31;67861;51.966;5.672;2023-06-04T10:08:50;25.1;27.0
78571;SHT31;67861;51.966;5.672;2023-06-04T10:11:32;25.1;25.7
78571;SHT31;67861;51.966;5.672;2023-06-04T10:14:14;25.2;26.5
78571;SHT31;67861;51.966;5.672;2023-06-04T10:16:47;25.3;26.0
78571;SHT31;67861;51.966;5.672;2023-06-04T10:19:19;25.4;26.4
78571;SHT31;67861;51.966;5.672;2023-06-04T10:21:49;25.5;26.6
78571;SHT31;67861;51.966;5.672;2023-06-04T10:24:19;25.6;26.6
78571;SHT31;67861;51.966;5.672;2023-06-04T10:26:51;25.7;26.6
78571;SHT31;67861;51.966;5.672;2023-06-04T10:29:23;25.7;25.8
78571;SHT31;67861;51.966;5.672;2023-06-04T10:31:55;25.8;24.8
78571;SHT31;67861;51.966;5.672;2023-06-04T10:34:26;25.8;25.8
78571;SHT31;67861;51.966;5.672;2023-06-04T10:36:56;25.9;26.8
78571;SHT31;67861;51.966;5.672;2023-06-04T10:39:31;25.9;26.3
78571;SHT31;67861;51.966;5.672;2023-06-04T10:42:04;26.0;25.1
78571;SHT31;67861;51.966;5.672;2023-06-04T10:44:45;26.1;24.7
78571;SHT31;67861;51.966;5.672;2023-06-04T10:47:21;26.1;25.7
78571;SHT31;67861;51.966;5.672;2023-06-04T10:49:54;26.2;25.5
78571;SHT31;67861;51.966;5.672;2023-06-04T10:52:23;26.3;25.6
78571;SHT31;67861;51.966;5.672;2023-06-04T10:55:04;26.3;25.1
78571;SHT31;67861;51.966;5.672;2023-06-04T10:57:34;26.4;24.9
78571;SHT31;67861;51.966;5.672;2023-06-04T11:00:05;26.5;25.4
78571;SHT31;67861;51.966;5.672;2023-06-04T11:02:42;26.5;25.3
78571;SHT31;67861;51.966;5.672;2023-06-04T11:05:12;26.6;26.1
78571;SHT31;67861;51.966;5.672;2023-06-04T11:07:45;26.7;26.0
78571;SHT31;67861;51.966;5.672;2023-06-04T11:10:17;26.9;25.5
78571;SHT31;67861;51.966;5.672;2023-06-04T11:12:49;27.0;25.6
78571;SHT31;67861;51.966;5.672;2023-06-04T11:15:19;27.0;23.9
78571;SHT31;67861;51.966;5.672;2023-06-04T11:17:53;27.1;24.1
78571;SHT31;67861;51.966;5.672;2023-06-04T11:20:25;27.1;24.6
78571;SHT31;67861;51.966;5.672;2023-06-04T11:22:56;27.2;25.1
78571;SHT31;67861;51.966;5.672;2023-06-04T11:25:27;27.2;25.2
78571;SHT31;67861;51.966;5.672;2023-06-04T11:27:59;27.2;24.4
78571;SHT31;67861;51.966;5.672;2023-06-04T11:30:29;27.2;25.2
78571;SHT31;67861;51.966;5.672;2023-06-04T11:33:03;27.2;24.5
78571;SHT31;67861;51.966;5.672;2023-06-04T11:35:41;27.3;24.8
78571;SHT31;67861;51.966;5.672;2023-06-04T11:38:12;27.3;24.8
78571;SHT31;67861;51.966;5.672;2023-06-04T11:40:41;27.3;25.2
78571;SHT31;67861;51.966;5.672;2023-06-04T11:43:13;27.4;24.8
78571;SHT31;67861;51.966;5.672;2023-06-04T11:45:44;27.4;24.4
78571;SHT31;67861;51.966;5.672;2023-06-04T11:48:14;27.5;25.4
78571;SHT31;67861;51.966;5.672;2023-06-04T11:50:46;27.5;25.1
78571;SHT31;67861;51.966;5.672;2023-06-04T11:53:16;27.5;24.6
78571;SHT31;67861;51.966;5.672;2023-06-04T11:55:46;27.6;24.7
78571;SHT31;67861;51.966;5.672;2023-06-04T11:58:17;27.6;25.6
78571;SHT31;67861;51.966;5.672;2023-06-04T12:00:48;27.7;24.5
78571;SHT31;67861;51.966;5.672;2023-06-04T12:03:19;27.7;25.3
78571;SHT31;67861;51.966;5.672;2023-06-04T12:05:54;27.7;25.6
78571;SHT31;67861;51.966;5.672;2023-06-04T12:08:23;27.8;24.2
78571;SHT31;67861;51.966;5.672;2023-06-04T12:10:53;27.8;24.4
78571;SHT31;67861;51.966;5.672;2023-06-04T12:13:22;27.9;25.1
78571;SHT31;67861;51.966;5.672;2023-06-04T12:15:53;27.9;23.3
78571;SHT31;67861;51.966;5.672;2023-06-04T12:18:25;27.9;24.7
78571;SHT31;67861;51.966;5.672;2023-06-04T12:20:54;27.9;24.9
78571;SHT31;67861;51.966;5.672;2023-06-04T12:23:26;28.0;24.8
78571;SHT31;67861;51.966;5.672;2023-06-04T12:25:56;28.1;25.2
78571;SHT31;67861;51.966;5.672;2023-06-04T12:28:32;28.2;24.9
78571;SHT31;67861;51.966;5.672;2023-06-04T12:31:03;28.4;24.6
78571;SHT31;67861;51.966;5.672;2023-06-04T12:33:32;28.5;23.4
78571;SHT31;67861;51.966;5.672;2023-06-04T12:36:02;28.5;23.4
78571;SHT31;67861;51.966;5.672;2023-06-04T12:38:33;28.5;24.1
78571;SHT31;67861;51.966;5.672;2023-06-04T12:41:02;28.5;24.5
78571;SHT31;67861;51.966;5.672;2023-06-04T12:43:33;28.6;25.2
78571;SHT31;67861;51.966;5.672;2023-06-04T12:46:05;28.6;23.9
78571;SHT31;67861;51.966;5.672;2023-06-04T12:48:34;28.6;23.7
78571;SHT31;67861;51.966;5.672;2023-06-04T12:51:04;28.7;24.1
78571;SHT31;67861;51.966;5.672;2023-06-04T12:53:33;28.7;23.6
78571;SHT31;67861;51.966;5.672;2023-06-04T12:56:03;28.7;23.1
78571;SHT31;67861;51.966;5.672;2023-06-04T12:58:32;28.7;22.9
78571;SHT31;67861;51.966;5.672;2023-06-04T13:01:03;28.7;23.6
78571;SHT31;67861;51.966;5.672;2023-06-04T13:03:33;28.7;23.3
78571;SHT31;67861;51.966;5.672;2023-06-04T13:06:03;28.7;23.4
78571;SHT31;67861;51.966;5.672;2023-06-04T13:08:37;28.7;24.1
78571;SHT31;67861;51.966;5.672;2023-06-04T13:11:07;28.7;24.1
78571;SHT31;67861;51.966;5.672;2023-06-04T13:13:37;28.7;23.9
78571;SHT31;67861;51.966;5.672;2023-06-04T13:16:08;28.7;23.6
78571;SHT31;67861;51.966;5.672;2023-06-04T13:18:37;28.8;24.8
78571;SHT31;67861;51.966;5.672;2023-06-04T13:21:09;28.8;24.0
78571;SHT31;67861;51.966;5.672;2023-06-04T13:23:38;28.8;23.6
78571;SHT31;67861;51.966;5.672;2023-06-04T13:26:08;28.8;23.8
78571;SHT31;67861;51.966;5.672;2023-06-04T13:28:38;28.9;24.3
78571;SHT31;67861;51.966;5.672;2023-06-04T13:31:07;28.9;24.6
78571;SHT31;67861;51.966;5.672;2023-06-04T13:33:37;28.9;24.2
78571;SHT31;67861;51.966;5.672;2023-06-04T13:36:08;29.0;24.5
78571;SHT31;67861;51.966;5.672;2023-06-04T13:38:37;29.1;24.5
78571;SHT31;67861;51.966;5.672;2023-06-04T13:41:08;29.2;23.6
78571;SHT31;67861;51.966;5.672;2023-06-04T13:43:42;29.3;23.2
78571;SHT31;67861;51.966;5.672;2023-06-04T13:46:13;29.3;24.5
78571;SHT31;67861;51.966;5.672;2023-06-04T13:48:43;29.4;24.3
78571;SHT31;67861;51.966;5.672;2023-06-04T13:51:16;29.5;25.0
78571;SHT31;67861;51.966;5.672;2023-06-04T13:53:46;29.6;25.0
78571;SHT31;67861;51.966;5.672;2023-06-04T13:56:16;29.6;23.5
78571;SHT31;67861;51.966;5.672;2023-06-04T13:58:45;29.6;21.8
78571;SHT31;67861;51.966;5.672;2023-06-04T14:01:15;29.6;22.3
78571;SHT31;67861;51.966;5.672;2023-06-04T14:03:49;29.5;23.1
78571;SHT31;67861;51.966;5.672;2023-06-04T14:06:19;29.5;22.8
78571;SHT31;67861;51.966;5.672;2023-06-04T14:08:51;29.4;23.5
78571;SHT31;67861;51.966;5.672;2023-06-04T14:11:20;29.4;23.8
78571;SHT31;67861;51.966;5.672;2023-06-04T14:13:50;29.4;23.4
78571;SHT31;67861;51.966;5.672;2023-06-04T14:16:21;29.4;23.2
78571;SHT31;67861;51.966;5.672;2023-06-04T14:18:50;29.4;23.2
78571;SHT31;67861;51.966;5.672;2023-06-04T14:21:20;29.4;23.2
78571;SHT31;67861;51.966;5.672;2023-06-04T14:23:53;29.3;23.7
78571;SHT31;67861;51.966;5.672;2023-06-04T14:26:24;29.3;23.7
78571;SHT31;67861;51.966;5.672;2023-06-04T14:28:54;29.3;24.4
78571;SHT31;67861;51.966;5.672;2023-06-04T14:31:23;29.3;23.3
78571;SHT31;67861;51.966;5.672;2023-06-04T14:33:53;29.3;24.2
78571;SHT31;67861;51.966;5.672;2023-06-04T14:36:24;29.3;24.2
78571;SHT31;67861;51.966;5.672;2023-06-04T14:38:57;29.3;24.2
78571;SHT31;67861;51.966;5.672;2023-06-04T14:41:26;29.3;23.8
78571;SHT31;67861;51.966;5.672;2023-06-04T14:43:56;29.3;23.8
78571;SHT31;67861;51.966;5.672;2023-06-04T14:46:26;29.2;23.3
78571;SHT31;67861;51.966;5.672;2023-06-04T14:48:56;29.2;23.0
78571;SHT31;67861;51.966;5.672;2023-06-04T14:51:27;29.2;23.0
78571;SHT31;67861;51.966;5.672;2023-06-04T14:53:57;29.1;23.5
78571;SHT31;67861;51.966;5.672;2023-06-04T14:56:27;29.0;24.5
78571;SHT31;67861;51.966;5.672;2023-06-04T14:58:59;29.0;24.6
78571;SHT31;67861;51.966;5.672;2023-06-04T15:01:36;29.0;24.8
78571;SHT31;67861;51.966;5.672;2023-06-04T15:04:08;29.0;25.4
78571;SHT31;67861;51.966;5.672;2023-06-04T15:06:44;29.0;25.0
78571;SHT31;67861;51.966;5.672;2023-06-04T15:09:15;29.0;24.5
78571;SHT31;67861;51.966;5.672;2023-06-04T15:11:44;29.0;24.1
78571;SHT31;67861;51.966;5.672;2023-06-04T15:14:14;29.0;23.6
78571;SHT31;67861;51.966;5.672;2023-06-04T15:16:52;28.9;23.9
78571;SHT31;67861;51.966;5.672;2023-06-04T15:19:23;28.9;24.1
78571;SHT31;67861;51.966;5.672;2023-06-04T15:21:52;28.8;24.5
78571;SHT31;67861;51.966;5.672;2023-06-04T15:24:22;28.7;24.5
78571;SHT31;67861;51.966;5.672;2023-06-04T15:26:51;28.7;25.0
78571;SHT31;67861;51.966;5.672;2023-06-04T15:29:21;28.6;24.5
78571;SHT31;67861;51.966;5.672;2023-06-04T15:31:52;28.6;24.2
78571;SHT31;67861;51.966;5.672;2023-06-04T15:34:22;28.5;25.0
78571;SHT31;67861;51.966;5.672;2023-06-04T15:36:54;28.5;24.8
78571;SHT31;67861;51.966;5.672;2023-06-04T15:39:23;28.5;25.4
78571;SHT31;67861;51.966;5.672;2023-06-04T15:41:53;28.5;25.2
78571;SHT31;67861;51.966;5.672;2023-06-04T15:44:24;28.5;25.3
78571;SHT31;67861;51.966;5.672;2023-06-04T15:46:54;28.5;24.6
78571;SHT31;67861;51.966;5.672;2023-06-04T15:49:27;28.5;24.8
78571;SHT31;67861;51.966;5.672;2023-06-04T15:52:02;28.5;24.7
78571;SHT31;67861;51.966;5.672;2023-06-04T15:54:32;28.4;24.8
78571;SHT31;67861;51.966;5.672;2023-06-04T15:57:04;28.3;25.2
78571;SHT31;67861;51.966;5.672;2023-06-04T15:59:36;28.3;25.4
78571;SHT31;67861;51.966;5.672;2023-06-04T16:02:16;28.3;25.5
78571;SHT31;67861;51.966;5.672;2023-06-04T16:04:46;28.3;25.1
78571;SHT31;67861;51.966;5.672;2023-06-04T16:07:17;28.3;26.3
78571;SHT31;67861;51.966;5.672;2023-06-04T16:09:47;28.2;25.5
78571;SHT31;67861;51.966;5.672;2023-06-04T16:12:16;28.2;25.5
78571;SHT31;67861;51.966;5.672;2023-06-04T16:14:46;28.1;25.3
78571;SHT31;67861;51.966;5.672;2023-06-04T16:17:16;28.1;25.2
78571;SHT31;67861;51.966;5.672;2023-06-04T16:19:45;28.0;24.9
78571;SHT31;67861;51.966;5.672;2023-06-04T16:22:15;28.0;24.9
78571;SHT31;67861;51.966;5.672;2023-06-04T16:24:44;27.9;25.4
78571;SHT31;67861;51.966;5.672;2023-06-04T16:27:14;27.8;26.2